Time;durP1;ratioP1;P1;durP2;ratioP2;P2;SDS_P1;SDS_P2;PMS_P1;PMS_P2;Temp;Humidity;BMP_temperature;BMP_pressure;BME280_temperature;BME280_humidity;BME280_pressure;Samples;Min_cycle;Max_cycle;Signal;HPM_P1;HPM_P2
2022/05/23 00:01:27;;;;;;;4.67;2.77;;;;;;;;;;5032810;28;20449;-64
2022/05/23 00:03:55;;;;;;;5.20;3.07;;;;;;;;;;5032811;28;20469;-63
2022/05/23 00:06:23;;;;;;;3.50;3.20;;;;;;;;;;5032757;28;20556;-65
2022/05/23 00:08:52;;;;;;;5.90;3.50;;;;;;;;;;5032568;28;20556;-63
2022/05/23 00:11:20;;;;;;;4.07;3.00;;;;;;;;;;5032915;28;20555;-64
2022/05/23 00:13:48;;;;;;;3.23;3.03;;;;;;;;;;5032693;28;20480;-63
2022/05/23 00:16:18;;;;;;;3.33;3.03;;;;;;;;;;5032953;28;20444;-63
2022/05/23 00:18:46;;;;;;;4.70;3.50;;;;;;;;;;5033499;28;20432;-63
2022/05/23 00:21:13;;;;;;;4.37;3.97;;;;;;;;;;5033273;28;20445;-64
2022/05/23 00:23:40;;;;;;;7.37;6.17;;;;;;;;;;5033307;28;20467;-63
2022/05/23 00:26:11;;;;;;;13.53;3.93;;;;;;;;;;5036730;28;20457;-64
2022/05/23 00:28:38;;;;;;;5.50;3.37;;;;;;;;;;5037027;28;20467;-63
2022/05/23 00:31:06;;;;;;;5.70;3.83;;;;;;;;;;5037491;28;20502;-65
2022/05/23 00:36:19;;;;;;;4.77;3.63;;;;;;;;;;5036521;22;20556;-61
2022/05/23 00:38:46;;;;;;;4.40;3.80;;;;;;;;;;5016876;28;20452;-61
2022/05/23 00:44:08;;;;;;;5.43;3.40;;;;;;;;;;5016893;28;20488;-62
2022/05/23 00:46:35;;;;;;;3.90;3.53;;;;;;;;;;5016460;28;20995;-61
2022/05/23 00:49:04;;;;;;;5.83;3.67;;;;;;;;;;5016692;28;20456;-62
2022/05/23 00:51:33;;;;;;;5.13;4.43;;;;;;;;;;5016336;28;20441;-62
2022/05/23 00:54:02;;;;;;;4.90;4.07;;;;;;;;;;5016591;28;20486;-62
2022/05/23 00:56:37;;;;;;;4.77;4.30;;;;;;;;;;5017167;28;20472;-61
2022/05/23 00:59:05;;;;;;;4.27;3.87;;;;;;;;;;5017022;28;20425;-61
2022/05/23 01:01:36;;;;;;;7.90;4.67;;;;;;;;;;5016621;28;20449;-62
2022/05/23 01:04:05;;;;;;;4.17;3.77;;;;;;;;;;5016438;28;20450;-61
2022/05/23 01:06:32;;;;;;;6.47;3.90;;;;;;;;;;5016349;28;20507;-62
2022/05/23 01:09:00;;;;;;;5.40;4.43;;;;;;;;;;5016227;28;20458;-62
2022/05/23 01:11:27;;;;;;;4.70;4.30;;;;;;;;;;5016397;28;20442;-62
2022/05/23 01:13:56;;;;;;;4.80;4.10;;;;;;;;;;5016197;28;20441;-62
2022/05/23 01:16:25;;;;;;;5.10;4.60;;;;;;;;;;5015871;28;20492;-61
2022/05/23 01:18:53;;;;;;;4.63;4.10;;;;;;;;;;5015736;28;20976;-59
2022/05/23 01:21:24;;;;;;;5.33;4.30;;;;;;;;;;5015459;28;20457;-61
2022/05/23 01:23:53;;;;;;;7.70;4.60;;;;;;;;;;5016022;28;20433;-62
2022/05/23 01:26:22;;;;;;;5.50;3.87;;;;;;;;;;5015613;28;20465;-62
2022/05/23 01:28:50;;;;;;;9.73;4.53;;;;;;;;;;5015976;28;20454;-62
2022/05/23 01:31:18;;;;;;;5.10;4.60;;;;;;;;;;5015882;28;20477;-62
2022/05/23 01:33:45;;;;;;;6.27;3.60;;;;;;;;;;5015575;28;20449;-62
2022/05/23 01:36:12;;;;;;;6.07;4.90;;;;;;;;;;5014888;28;20469;-61
2022/05/23 01:38:40;;;;;;;6.93;4.70;;;;;;;;;;5015829;28;20537;-61
2022/05/23 01:41:07;;;;;;;5.47;4.60;;;;;;;;;;5015626;28;20452;-61
2022/05/23 01:43:36;;;;;;;5.50;4.30;;;;;;;;;;5015508;28;20575;-61
2022/05/23 01:46:03;;;;;;;4.83;3.83;;;;;;;;;;5015346;28;20495;-61
2022/05/23 01:48:31;;;;;;;7.80;4.57;;;;;;;;;;5015822;28;20809;-61
2022/05/23 01:50:58;;;;;;;5.53;4.43;;;;;;;;;;5015738;28;20472;-61
2022/05/23 01:53:26;;;;;;;6.40;4.63;;;;;;;;;;5015767;28;20449;-61
2022/05/23 01:55:54;;;;;;;4.43;4.03;;;;;;;;;;5015838;28;20547;-61
2022/05/23 02:01:16;;;;;;;7.50;4.37;;;;;;;;;;5015532;28;20417;-61
2022/05/23 02:03:44;;;;;;;7.83;5.10;;;;;;;;;;5015577;28;20434;-61
2022/05/23 02:06:12;;;;;;;5.57;4.97;;;;;;;;;;5015156;28;20457;-61
2022/05/23 02:08:39;;;;;;;6.00;4.77;;;;;;;;;;5015689;28;20805;-61
2022/05/23 02:11:07;;;;;;;6.10;4.90;;;;;;;;;;5015692;28;20445;-62
2022/05/23 02:13:35;;;;;;;5.80;5.17;;;;;;;;;;5014936;28;20449;-61
2022/05/23 02:16:02;;;;;;;5.63;5.00;;;;;;;;;;5014933;28;20622;-61
2022/05/23 02:18:31;;;;;;;7.07;5.73;;;;;;;;;;5015016;28;20465;-61
2022/05/23 02:20:58;;;;;;;11.80;5.30;;;;;;;;;;5014701;28;20957;-61
2022/05/23 02:23:26;;;;;;;7.80;5.27;;;;;;;;;;5014980;28;20450;-62
2022/05/23 02:25:53;;;;;;;6.93;4.70;;;;;;;;;;5014595;28;20461;-61
2022/05/23 02:28:20;;;;;;;7.70;5.60;;;;;;;;;;5014900;28;20450;-61
2022/05/23 02:30:48;;;;;;;5.73;5.10;;;;;;;;;;5014530;28;20457;-61
2022/05/23 02:33:16;;;;;;;7.70;5.60;;;;;;;;;;5014902;28;20450;-61
2022/05/23 02:35:45;;;;;;;6.47;5.50;;;;;;;;;;5014403;28;20496;-61
2022/05/23 02:38:12;;;;;;;8.70;6.33;;;;;;;;;;5014819;28;20817;-61
2022/05/23 02:40:39;;;;;;;7.33;6.03;;;;;;;;;;5015002;28;20445;-61
2022/05/23 02:43:06;;;;;;;10.10;6.63;;;;;;;;;;5014989;28;20457;-62
2022/05/23 02:45:34;;;;;;;7.83;7.03;;;;;;;;;;5014462;28;20466;-61
2022/05/23 02:48:01;;;;;;;10.27;7.03;;;;;;;;;;5014103;28;20456;-61
2022/05/23 02:50:28;;;;;;;10.07;6.60;;;;;;;;;;5014822;28;20494;-62
2022/05/23 02:52:57;;;;;;;8.70;6.87;;;;;;;;;;5014634;28;20446;-61
2022/05/23 02:55:24;;;;;;;7.23;6.47;;;;;;;;;;5015036;28;20492;-61
2022/05/23 02:57:52;;;;;;;10.47;6.90;;;;;;;;;;5015148;28;20460;-62
2022/05/23 03:00:19;;;;;;;8.27;6.50;;;;;;;;;;5014935;28;20825;-62
2022/05/23 03:03:06;;;;;;;12.17;8.73;;;;;;;;;;5014972;28;20450;-62
2022/05/23 03:05:34;;;;;;;10.13;7.40;;;;;;;;;;5015079;28;20458;-62
2022/05/23 03:08:03;;;;;;;7.10;6.40;;;;;;;;;;5014528;28;20449;-61
2022/05/23 03:10:30;;;;;;;10.90;7.57;;;;;;;;;;5014699;28;20446;-61
2022/05/23 03:12:58;;;;;;;7.93;7.00;;;;;;;;;;5015351;28;20811;-61
2022/05/23 03:15:25;;;;;;;8.30;6.80;;;;;;;;;;5016020;28;20488;-61
2022/05/23 03:17:52;;;;;;;12.53;6.27;;;;;;;;;;5013793;28;21064;-61
2022/05/23 03:20:20;;;;;;;10.00;6.67;;;;;;;;;;5013598;28;20454;-61
2022/05/23 03:28:19;;;;;;;6.90;6.30;;;;;;;;;;5013498;28;20409;-61
2022/05/23 03:30:47;;;;;;;9.90;6.83;;;;;;;;;;5013618;28;20453;-61
2022/05/23 03:33:15;;;;;;;8.73;5.80;;;;;;;;;;5013603;28;20458;-61
2022/05/23 03:35:44;;;;;;;6.40;5.80;;;;;;;;;;5013100;28;20508;-61
2022/05/23 03:38:11;;;;;;;6.77;5.97;;;;;;;;;;5013064;28;20541;-61
2022/05/23 03:40:41;;;;;;;8.00;7.27;;;16.10;53.30;;;;;;5013035;28;21036;-62
2022/05/23 03:43:09;;;;;;;6.83;5.80;;;;;;;;;;5013377;28;20452;-61
2022/05/23 03:45:37;;;;;;;8.10;7.13;;;;;;;;;;5013110;28;20476;-61
2022/05/23 03:48:06;;;;;;;7.20;6.13;;;;;;;;;;5012937;28;20481;-62
2022/05/23 03:50:34;;;;;;;7.20;6.50;;;;;;;;;;5012965;28;20454;-61
2022/05/23 03:53:01;;;;;;;6.63;5.93;;;;;;;;;;5012996;28;20469;-61
2022/05/23 03:55:29;;;;;;;8.57;6.80;;;;;;;;;;5012909;28;20500;-61
2022/05/23 03:57:58;;;;;;;7.90;6.40;;;;;;;;;;5013163;28;20445;-61
2022/05/23 04:00:25;;;;;;;8.33;6.00;;;12.40;96.70;;;;;;5012756;28;20454;-61
2022/05/23 04:02:52;;;;;;;6.00;5.40;;;13.00;96.10;;;;;;5013429;28;20437;-61
2022/05/23 04:05:19;;;;;;;9.30;6.10;;;13.30;95.50;;;;;;5013149;28;20465;-61
2022/05/23 04:09:46;;;;;;;6.87;4.93;;;13.90;93.90;;;;;;5090779;27;20545;-61
2022/05/23 04:12:13;;;;;;;5.67;5.10;;;14.20;93.10;;;;;;5090304;28;20445;-61
2022/05/23 04:14:40;;;;;;;6.63;5.23;;;14.30;92.40;;;;;;5090211;28;20462;-61
2022/05/23 04:17:08;;;;;;;6.43;5.47;;;14.40;91.90;;;;;;5089754;28;20449;-61
2022/05/23 04:19:36;;;;;;;5.33;4.83;;;14.30;91.60;;;;;;5089700;28;20445;-62
2022/05/23 04:22:03;;;;;;;8.53;5.13;;;14.30;91.60;;;;;;5090713;28;20517;-61
2022/05/23 04:24:30;;;;;;;8.67;4.73;;;14.30;91.70;;;;;;5090521;28;20465;-62
2022/05/23 04:26:59;;;;;;;6.70;4.70;;;14.50;91.40;;;;;;5090567;28;20450;-64
2022/05/23 04:29:26;;;;;;;6.10;5.13;;;14.70;91.00;;;;;;5089707;28;20997;-62
2022/05/23 04:31:53;;;;;;;7.17;5.57;;;14.90;90.20;;;;;;5089574;28;20450;-62
2022/05/23 04:37:05;;;;;;;11.50;4.63;;;15.10;88.40;;;;;;5089750;28;20410;-60
2022/05/23 04:39:32;;;;;;;6.13;5.07;;;15.00;87.50;;;;;;5088222;28;20454;-60
2022/05/23 04:42:03;;;;;;;10.43;5.20;;;14.90;87.50;;;;;;5089809;28;20442;-60
2022/05/23 04:44:30;;;;;;;5.33;4.73;;;14.80;87.40;;;;;;5088784;28;20458;-60
2022/05/23 04:49:49;;;;;;;6.67;4.80;;;14.60;88.00;;;;;;5079397;28;20550;-60
2022/05/23 04:52:19;;;;;;;4.87;4.37;;;14.60;88.30;;;;;;5089145;28;20446;-60
2022/05/23 04:54:47;;;;;;;6.53;4.83;;;14.70;88.20;;;;;;5079768;28;20532;-60
2022/05/23 04:57:16;;;;;;;5.00;4.50;;;14.70;87.80;;;;;;5068953;28;21016;-60
2022/05/23 04:59:44;;;;;;;5.47;4.23;;;14.80;87.70;;;;;;5079198;28;20832;-60
2022/05/23 05:02:11;;;;;;;8.50;4.93;;;15.00;86.80;;;;;;5079694;28;20455;-61
2022/05/23 05:04:38;;;;;;;5.87;4.10;;;15.20;86.10;;;;;;5068990;28;20475;-61
2022/05/23 05:07:05;;;;;;;8.53;4.10;;;15.40;85.50;;;;;;5067888;28;20466;-60
2022/05/23 05:09:33;;;;;;;7.03;4.40;;;15.70;84.10;;;;;;5080843;28;20520;-60
2022/05/23 05:12:01;;;;;;;6.33;4.20;;;15.90;82.30;;;;;;5083839;28;20464;-60
2022/05/23 05:14:30;;;;;;;5.40;3.70;;;16.00;81.00;;;;;;5072131;28;20458;-60
2022/05/23 05:16:57;;;;;;;4.90;3.63;;;16.10;80.10;;;;;;5076105;28;20475;-62
2022/05/23 05:19:24;;;;;;;6.50;4.20;;;16.20;79.80;;;;;;5071035;28;20444;-60
2022/05/23 05:21:51;;;;;;;6.43;4.87;;;16.20;79.30;;;;;;5060782;28;20460;-61
2022/05/23 05:24:18;;;;;;;4.53;4.13;;;16.30;78.60;;;;;;5069734;28;20834;-59
2022/05/23 05:26:46;;;;;;;4.30;3.67;;;16.30;78.00;;;;;;5065953;28;20481;-59
2022/05/23 05:29:13;;;;;;;7.30;4.90;;;16.40;78.00;;;;;;5057192;28;20513;-59
2022/05/23 05:31:48;;;;;;;5.07;4.57;;;16.40;77.90;;;;;;5061962;28;20792;-59
2022/05/23 05:34:19;;;;;;;4.03;3.63;;;16.40;77.60;;;;;;5074991;28;20422;-60
2022/05/23 05:36:51;;;;;;;6.23;4.40;;;16.50;77.60;;;;;;5074882;28;20440;-60
2022/05/23 05:39:23;;;;;;;5.13;4.30;;;16.50;77.20;;;;;;5075412;28;20472;-60
2022/05/23 05:41:54;;;;;;;4.60;3.77;;;16.50;76.80;;;;;;5075236;28;20449;-60
2022/05/23 05:44:27;;;;;;;5.10;3.87;;;16.50;76.90;;;;;;5066738;28;20498;-61
2022/05/23 05:46:59;;;;;;;4.73;3.87;;;16.40;77.10;;;;;;5074917;28;20431;-60
2022/05/23 05:49:28;;;;;;;6.33;4.27;;;16.30;77.80;;;;;;5075028;28;20915;-61
2022/05/23 05:52:01;;;;;;;6.70;4.47;;;16.20;78.10;;;;;;5075647;28;20443;-61
2022/05/23 05:54:30;;;;;;;6.53;4.23;;;16.10;78.70;;;;;;5075164;28;20504;-62
2022/05/23 05:56:59;;;;;;;8.53;4.87;;;15.90;79.20;;;;;;5074820;28;20998;-61
2022/05/23 05:59:27;;;;;;;10.80;5.30;;;15.90;80.20;;;;;;5074673;28;20443;-59
2022/05/23 06:01:55;;;;;;;8.63;5.37;;;15.70;80.90;;;;;;5073629;28;20546;-61
2022/05/23 06:04:22;;;;;;;6.13;4.17;;;15.70;81.80;;;;;;5072043;28;20459;-61
2022/05/23 06:12:18;;;;;;;10.10;5.03;;;15.70;83.40;;;;;;5064694;28;20847;-60
2022/05/23 06:14:45;;;;;;;4.97;4.40;;;15.70;83.30;;;;;;5070361;28;20466;-59
2022/05/23 06:17:14;;;;;;;8.63;4.90;;;15.70;83.80;;;;;;5074849;28;20454;-60
2022/05/23 06:19:43;;;;;;;5.23;4.50;;;15.70;84.10;;;;;;5074660;28;20451;-60
2022/05/23 06:22:11;;;;;;;8.33;5.20;;;15.80;84.10;;;;;;5075193;28;20471;-59
2022/05/23 06:24:38;;;;;;;5.53;5.03;;;15.90;83.80;;;;;;5073533;28;20566;-59
2022/05/23 06:27:06;;;;;;;5.93;4.63;;;16.00;83.50;;;;;;5065926;28;20464;-59
2022/05/23 06:29:34;;;;;;;7.70;4.50;;;16.10;83.30;;;;;;5055483;28;20483;-60
2022/05/23 06:32:02;;;;;;;7.47;5.40;;;16.10;83.00;;;;;;5073552;28;20450;-59
2022/05/23 06:34:30;;;;;;;8.80;4.90;;;16.20;82.70;;;;;;5073589;28;20451;-60
2022/05/23 06:39:27;;;;;;;9.90;5.20;;;16.20;82.50;;;;;;5054478;22;20496;-62
2022/05/23 06:41:54;;;;;;;6.00;4.27;;;16.20;82.50;;;;;;5034033;28;20452;-62
2022/05/23 06:44:22;;;;;;;8.37;4.53;;;16.30;82.40;;;;;;5031273;28;20467;-62
2022/05/23 06:46:49;;;;;;;5.80;4.43;;;16.30;82.30;;;;;;5032975;28;20461;-61
2022/05/23 06:49:16;;;;;;;6.40;4.37;;;16.40;82.00;;;;;;5033363;28;20489;-62
2022/05/23 06:51:49;;;;;;;6.37;4.53;;;16.50;81.50;;;;;;5032561;28;20483;-62
2022/05/23 06:54:17;;;;;;;10.03;5.00;;;16.70;81.00;;;;;;5034083;28;20496;-61
2022/05/23 06:56:44;;;;;;;12.67;4.83;;;16.80;80.30;;;;;;5033310;28;20449;-61
2022/05/23 06:59:11;;;;;;;8.17;4.90;;;17.00;79.60;;;;;;5033306;28;20472;-62
2022/05/23 07:01:38;;;;;;;7.23;4.80;;;17.10;78.80;;;;;;5031761;28;20814;-62
2022/05/23 07:04:06;;;;;;;5.43;4.93;;;17.30;78.00;;;;;;5033690;28;20539;-62
2022/05/23 07:12:21;;;;;;;8.77;5.00;;;17.30;77.00;;;;;;5013503;28;20409;-61
2022/05/23 07:14:48;;;;;;;12.67;4.90;;;17.30;76.80;;;;;;5013620;28;20442;-62
2022/05/23 07:17:16;;;;;;;8.00;4.57;;;17.40;76.90;;;;;;5013301;28;20438;-62
2022/05/23 07:19:43;;;;;;;6.30;4.37;;;17.50;76.50;;;;;;5030298;28;20464;-63
2022/05/23 07:22:11;;;;;;;11.83;4.67;;;17.60;76.70;;;;;;5033323;28;20457;-62
2022/05/23 07:24:39;;;;;;;6.10;4.03;;;17.70;76.40;;;;;;5032841;28;20823;-62
2022/05/23 07:27:06;;;;;;;4.67;4.17;;;17.80;75.70;;;;;;5032992;28;20445;-65
2022/05/23 07:29:33;;;;;;;6.83;4.70;;;17.90;74.90;;;;;;5037301;28;20491;-62
2022/05/23 07:32:01;;;;;;;6.10;4.30;;;18.00;74.00;;;;;;5040385;28;20447;-62
2022/05/23 07:34:28;;;;;;;5.53;3.93;;;18.10;73.40;;;;;;5041818;28;20441;-62
2022/05/23 07:36:56;;;;;;;12.13;4.63;;;18.20;73.00;;;;;;5041433;28;20468;-62
2022/05/23 07:39:24;;;;;;;10.13;3.90;;;18.30;71.40;;;;;;5036644;28;20469;-62
2022/05/23 07:41:53;;;;;;;9.80;5.73;;;18.30;70.60;;;;;;5035246;28;20475;-62
2022/05/23 07:44:20;;;;;;;7.77;4.77;;;18.30;70.10;;;;;;5035215;28;20464;-61
2022/05/23 07:46:47;;;;;;;5.90;4.60;;;18.40;69.40;;;;;;5034637;28;20471;-64
2022/05/23 07:49:14;;;;;;;4.30;3.60;;;18.30;69.10;;;;;;5034621;28;20485;-61
2022/05/23 07:51:41;;;;;;;6.10;4.40;;;18.30;68.70;;;;;;5034814;28;20452;-61
2022/05/23 08:02:23;;;;;;;8.27;4.27;;;18.60;67.70;;;;;;5033006;28;20412;-62
2022/05/23 08:04:50;;;;;;;7.77;4.83;;;18.70;67.20;;;;;;5031988;28;20452;-63
2022/05/23 08:07:17;;;;;;;6.77;4.70;;;18.80;67.00;;;;;;5030264;28;20480;-62
2022/05/23 08:09:44;;;;;;;7.63;5.20;;;18.90;66.80;;;;;;5031523;28;20495;-61
2022/05/23 08:12:16;;;;;;;5.87;4.30;;;19.00;66.50;;;;;;5032351;28;20937;-62
2022/05/23 08:14:43;;;;;;;6.10;4.73;;;19.00;66.20;;;;;;5032832;28;20460;-62
2022/05/23 08:17:10;;;;;;;10.40;4.70;;;19.00;66.40;;;;;;5031584;28;20961;-62
2022/05/23 08:19:37;;;;;;;6.47;4.57;;;18.90;66.50;;;;;;5032313;28;20853;-61
2022/05/23 08:22:06;;;;;;;7.30;4.17;;;18.90;66.40;;;;;;5031387;28;20917;-60
2022/05/23 08:24:33;;;;;;;9.83;4.47;;;18.90;66.60;;;;;;5032757;28;20445;-61
2022/05/23 08:27:01;;;;;;;7.53;4.60;;;19.00;66.80;;;;;;5032090;28;20481;-62
2022/05/23 08:29:31;;;;;;;11.33;4.97;;;19.10;66.30;;;;;;5032646;28;20543;-62
2022/05/23 08:31:58;;;;;;;5.97;4.90;;;19.30;66.20;;;;;;5031696;28;20449;-61
2022/05/23 08:34:25;;;;;;;9.03;5.27;;;19.40;64.80;;;;;;5032767;28;20460;-60
2022/05/23 08:36:52;;;;;;;10.53;5.77;;;19.50;64.10;;;;;;5032579;28;20814;-61
2022/05/23 08:39:20;;;;;;;6.07;4.53;;;19.60;63.40;;;;;;5029838;28;21000;-62
2022/05/23 08:41:50;;;;;;;5.67;4.90;;;19.70;63.00;;;;;;5032503;28;20488;-61
2022/05/23 08:44:27;;;;;;;4.73;4.10;;;19.70;62.30;;;;;;5032021;28;20543;-62
2022/05/23 08:47:01;;;;;;;6.67;4.97;;;19.70;61.80;;;;;;5032250;28;20797;-60
2022/05/23 08:49:42;;;;;;;5.20;4.63;;;19.80;61.70;;;;;;5031704;28;20489;-61
2022/05/23 08:52:14;;;;;;;6.00;4.57;;;19.90;61.40;;;;;;5032467;28;20468;-61
2022/05/23 08:54:49;;;;;;;5.87;4.60;;;20.10;61.00;;;;;;5032759;28;20940;-61
2022/05/23 08:57:28;;;;;;;10.03;6.23;;;20.20;60.20;;;;;;5035389;28;20439;-61
2022/05/23 09:00:01;;;;;;;8.83;4.97;;;20.30;59.70;;;;;;5043879;28;20429;-62
2022/05/23 09:02:42;;;;;;;8.60;4.00;;;20.40;59.60;;;;;;5043227;28;20440;-63
2022/05/23 09:05:13;;;;;;;7.20;4.77;;;20.50;59.40;;;;;;5042633;28;20432;-62
2022/05/23 09:07:44;;;;;;;6.97;4.70;;;20.60;59.10;;;;;;5043537;28;20456;-62
2022/05/23 09:10:15;;;;;;;8.17;5.23;;;20.70;58.70;;;;;;5037213;28;20472;-62
2022/05/23 09:12:43;;;;;;;9.70;5.10;;;20.90;58.20;;;;;;5036235;28;20449;-62
2022/05/23 09:15:10;;;;;;;9.73;4.90;;;21.10;57.90;;;;;;5036354;28;20463;-62
2022/05/23 09:17:45;;;;;;;8.60;5.17;;;21.30;57.40;;;;;;5035085;28;20522;-62
2022/05/23 09:20:15;;;;;;;10.97;5.10;;;21.50;56.60;;;;;;5034927;28;20464;-63
2022/05/23 09:22:47;;;;;;;7.70;5.53;;;21.80;55.90;;;;;;5035750;28;20444;-63
2022/05/23 09:25:17;;;;;;;6.83;5.33;;;22.00;55.30;;;;;;5033416;28;20457;-61
2022/05/23 09:27:49;;;;;;;12.43;5.50;;;22.10;54.90;;;;;;5033882;28;20484;-64
2022/05/23 09:30:21;;;;;;;7.03;5.23;;;22.20;54.50;;;;;;5035558;28;20487;-64
2022/05/23 09:32:54;;;;;;;7.57;5.97;;;22.40;54.00;;;;;;5035625;28;20839;-63
2022/05/23 09:35:24;;;;;;;8.07;5.87;;;22.60;53.70;;;;;;5035122;28;20433;-61
2022/05/23 09:38:11;;;;;;;7.27;5.37;;;22.70;53.30;;;;;;5034406;28;20484;-61
2022/05/23 09:40:39;;;;;;;8.50;5.57;;;22.90;53.40;;;;;;5033712;28;20821;-62
2022/05/23 09:49:05;;;;;;;10.53;6.30;;;23.20;51.70;;;;;;5034603;28;20445;-62
2022/05/23 09:51:32;;;;;;;9.23;5.40;;;23.40;51.40;;;;;;5035089;28;20457;-62
2022/05/23 09:54:03;;;;;;;7.40;5.20;;;23.50;50.90;;;;;;5033088;28;20935;-62
2022/05/23 09:56:37;;;;;;;6.80;5.60;;;23.60;50.60;;;;;;5034811;28;20496;-62
2022/05/23 09:59:07;;;;;;;7.00;5.37;;;23.70;50.40;;;;;;5034789;28;20543;-63
2022/05/23 10:01:35;;;;;;;7.13;5.17;;;23.70;50.00;;;;;;5034545;28;20498;-62
2022/05/23 10:04:15;;;;;;;6.10;5.27;;;23.80;49.70;;;;;;5034050;28;20824;-62
2022/05/23 10:06:48;;;;;;;7.27;4.80;;;23.80;49.60;;;;;;5034852;28;20767;-63
2022/05/23 10:09:25;;;;;;;6.57;4.70;;;24.00;49.50;;;;;;5034556;28;20469;-63
2022/05/23 10:11:55;;;;;;;5.57;4.70;;;24.10;48.80;;;;;;5033913;28;20760;-62
2022/05/23 10:14:25;;;;;;;7.63;4.80;;;24.10;48.60;;;;;;5034035;28;20445;-63
2022/05/23 10:16:54;;;;;;;8.03;5.07;;;24.20;48.40;;;;;;5033476;28;20468;-62
2022/05/23 10:19:31;;;;;;;5.37;4.87;;;24.40;48.20;;;;;;5032954;28;20783;-62
2022/05/23 10:22:13;;;;;;;6.83;5.20;;;24.70;47.70;;;;;;5034300;28;20929;-61
2022/05/23 10:24:47;;;;;;;5.97;4.83;;;24.80;47.30;;;;;;5033810;28;20431;-62
2022/05/23 10:27:18;;;;;;;6.03;4.90;;;24.80;47.10;;;;;;5033380;28;20445;-62
2022/05/23 10:29:58;;;;;;;6.63;4.07;;;24.80;47.20;;;;;;5032873;28;20595;-62
2022/05/23 10:32:32;;;;;;;9.23;6.20;;;25.00;47.20;;;;;;5035201;28;20444;-61
2022/05/23 10:35:07;;;;;;;5.03;4.10;;;25.20;46.60;;;;;;5037434;28;20770;-61
2022/05/23 10:37:36;;;;;;;5.20;4.70;;;25.30;46.30;;;;;;5038146;28;20958;-62
2022/05/23 10:42:59;;;;;;;9.47;5.00;;;25.50;46.00;;;;;;5034418;28;20480;-62
2022/05/23 10:45:32;;;;;;;7.77;5.27;;;25.50;45.90;;;;;;5034704;28;20441;-62
2022/05/23 10:48:23;;;;;;;10.50;4.50;;;25.20;46.10;;;;;;5034480;28;20534;-62
2022/05/23 10:50:55;;;;;;;7.23;4.83;;;25.00;46.60;;;;;;5030865;28;20483;-61
2022/05/23 10:53:38;;;;;;;7.93;5.27;;;24.90;47.20;;;;;;5033736;28;20445;-61
2022/05/23 10:56:20;;;;;;;5.80;4.70;;;24.90;46.90;;;;;;5033896;28;20436;-62
2022/05/23 10:58:53;;;;;;;5.20;4.50;;;24.80;46.80;;;;;;5019477;28;20492;-62
2022/05/23 11:01:43;;;;;;;5.40;4.80;;;24.70;47.00;;;;;;5033201;28;20441;-62
2022/05/23 11:04:21;;;;;;;5.20;4.30;;;24.50;47.10;;;;;;5033536;28;20476;-61
2022/05/23 11:07:05;;;;;;;8.90;4.30;;;24.50;47.20;;;;;;5032753;28;20802;-62
2022/05/23 11:09:42;;;;;;;7.83;4.97;;;24.60;47.40;;;;;;5018367;28;20445;-63
2022/05/23 11:12:19;;;;;;;6.93;4.67;;;24.80;47.20;;;;;;5033272;28;20436;-62
2022/05/23 11:14:58;;;;;;;6.20;4.37;;;24.90;47.10;;;;;;5033566;28;20421;-62
2022/05/23 11:17:33;;;;;;;6.13;4.30;;;25.10;46.80;;;;;;5029748;28;20558;-62
2022/05/23 11:20:11;;;;;;;9.10;5.50;;;25.30;46.20;;;;;;5028998;28;20940;-61
2022/05/23 11:22:44;;;;;;;7.60;6.20;;;25.40;45.80;;;;;;5030908;28;20441;-62
2022/05/23 11:25:23;;;;;;;7.73;4.67;;;25.20;45.70;;;;;;5029983;28;20465;-62
2022/05/23 11:33:47;;;;;;;5.73;3.27;;;25.00;46.30;;;;;;5035197;28;20900;-63
2022/05/23 11:36:33;;;;;;;5.07;3.73;;;25.20;46.00;;;;;;5033693;28;20455;-62
2022/05/23 11:39:02;;;;;;;7.57;4.70;;;25.30;45.70;;;;;;5032254;28;20965;-62
2022/05/23 11:41:41;;;;;;;6.20;3.40;;;25.50;45.70;;;;;;5032902;28;20469;-62
2022/05/23 11:45:56;;;;;;;6.17;5.57;;;25.70;45.60;;;;;;5032788;28;20474;-61
2022/05/23 11:47:58;;;;;;;4.53;3.80;;;25.90;45.30;;;;;;4970922;28;20563;-62
2022/05/23 11:50:30;;;;;;;4.07;3.30;;;26.10;44.80;;;;;;5027813;28;20866;-62
2022/05/23 11:53:10;;;;;;;5.73;3.23;;;25.90;44.80;;;;;;5032912;28;20487;-62
2022/05/23 11:56:07;;;;;;;4.33;3.70;;;25.70;45.00;;;;;;5037881;28;20433;-63
2022/05/23 11:58:47;;;;;;;4.67;3.53;;;25.80;44.80;;;;;;5039713;28;20518;-63
2022/05/23 12:01:22;;;;;;;4.97;3.30;;;25.90;44.50;;;;;;5039237;28;20547;-63
2022/05/23 12:04:13;;;;;;;7.40;3.67;;;25.90;44.30;;;;;;5038205;28;20873;-63
2022/05/23 12:06:42;;;;;;;5.67;3.00;;;25.90;44.30;;;;;;5032971;28;20447;-63
2022/05/23 12:09:30;;;;;;;3.80;3.33;;;26.00;44.10;;;;;;5032877;28;20485;-64
2022/05/23 12:12:50;;;;;;;4.87;3.23;;;26.00;44.00;;;;;;5032560;28;20468;-62
2022/05/23 12:15:51;;;;;;;4.70;3.47;;;26.00;44.00;;;;;;5015501;28;20448;-62
2022/05/23 12:18:49;;;;;;;3.23;2.83;;;25.90;44.20;;;;;;5032852;28;20465;-63
2022/05/23 12:21:40;;;;;;;3.43;3.10;;;26.10;44.20;;;;;;5001403;28;20999;-64
2022/05/23 12:24:19;;;;;;;6.60;3.50;;;26.60;43.90;;;;;;5043138;28;20483;-64
2022/05/23 12:26:50;;;;;;;4.53;3.50;;;27.30;42.90;;;;;;5039282;28;20425;-62
2022/05/23 12:29:30;;;;;;;5.13;3.70;;;27.60;42.30;;;;;;5038421;28;20511;-64
2022/05/23 12:32:27;;;;;;;6.23;3.80;;;27.80;42.00;;;;;;5042666;28;20465;-62
2022/05/23 12:34:59;;;;;;;5.40;3.53;;;27.80;42.00;;;;;;5043852;28;20471;-62
2022/05/23 12:37:29;;;;;;;5.43;3.40;;;27.90;42.10;;;;;;5043219;28;20582;-65
2022/05/23 12:40:18;;;;;;;5.07;3.63;;;28.00;41.90;;;;;;5044607;28;20433;-64
2022/05/23 12:42:58;;;;;;;8.33;3.67;;;27.80;41.90;;;;;;5041709;28;20486;-63
2022/05/23 12:45:40;;;;;;;6.80;3.40;;;27.60;42.70;;;;;;5039504;28;20424;-63
2022/05/23 12:48:33;;;;;;;7.57;3.70;;;27.50;43.00;;;;;;5036145;28;20939;-62
2022/05/23 12:51:18;;;;;;;3.80;3.07;;;27.60;43.00;;;;;;5035359;28;21008;-61
2022/05/23 12:54:04;;;;;;;6.87;3.83;;;27.50;43.00;;;;;;5035641;28;20433;-62
2022/05/23 12:56:44;;;;;;;5.90;3.27;;;27.40;43.10;;;;;;5033480;28;20437;-63
2022/05/23 12:59:42;;;;;;;6.53;3.73;;;27.40;43.30;;;;;;5034208;28;20480;-61
2022/05/23 13:02:14;;;;;;;5.67;2.83;;;27.30;43.10;;;;;;5035753;28;20999;-62
2022/05/23 13:04:49;;;;;;;5.30;3.30;;;27.10;43.20;;;;;;5035843;28;20525;-62
2022/05/23 13:07:24;;;;;;;3.90;3.33;;;26.90;43.50;;;;;;5035882;28;20871;-63
2022/05/23 13:12:22;;;;;;;5.30;3.47;;;26.70;44.10;;;;;;5030231;22;20502;-61
2022/05/23 13:14:52;;;;;;;5.53;3.57;;;26.80;44.20;;;;;;4998444;28;20271;-62
2022/05/23 13:17:37;;;;;;;4.70;3.20;;;26.90;44.20;;;;;;4998962;28;20517;-61
2022/05/23 13:23:02;;;;;;;7.80;3.37;;;27.00;44.10;;;;;;4998514;28;20915;-61
2022/05/23 13:25:30;;;;;;;4.17;3.20;;;27.10;44.10;;;;;;4998389;28;20526;-60
2022/05/23 13:27:58;;;;;;;4.10;2.57;;;27.20;44.00;;;;;;4998528;28;20477;-60
2022/05/23 13:30:29;;;;;;;4.93;2.83;;;27.20;43.90;;;;;;4998680;28;20490;-61
2022/05/23 13:33:08;;;;;;;4.73;3.77;;;27.40;43.90;;;;;;4999191;28;20443;-60
2022/05/23 13:35:37;;;;;;;4.30;2.90;;;27.50;43.40;;;;;;4996647;28;20843;-60
2022/05/23 13:38:21;;;;;;;4.70;2.90;;;27.60;43.10;;;;;;4996317;28;20517;-61
2022/05/23 13:40:51;;;;;;;3.47;2.57;;;27.60;42.90;;;;;;4995717;28;20995;-60
2022/05/23 13:43:21;;;;;;;5.80;2.73;;;27.80;42.60;;;;;;4996044;28;20526;-62
2022/05/23 13:45:57;;;;;;;4.60;3.00;;;27.90;42.30;;;;;;4996630;28;20462;-62
2022/05/23 13:48:30;;;;;;;3.93;2.70;;;27.90;42.00;;;;;;4997066;28;20435;-64
2022/05/23 13:51:02;;;;;;;5.00;2.80;;;27.90;41.90;;;;;;4996882;28;20509;-62
2022/05/23 13:53:34;;;;;;;4.90;2.60;;;28.00;41.90;;;;;;4996821;28;20911;-62
2022/05/23 13:56:03;;;;;;;4.00;2.83;;;28.20;41.80;;;;;;4998727;28;20453;-63
2022/05/23 13:58:33;;;;;;;3.50;2.37;;;28.30;41.70;;;;;;4998119;28;20482;-64
2022/05/23 14:01:05;;;;;;;8.10;2.57;;;28.20;41.60;;;;;;4997251;28;20473;-64
2022/05/23 14:03:35;;;;;;;2.50;2.30;;;28.20;41.70;;;;;;4997741;28;20443;-62
2022/05/23 14:06:07;;;;;;;3.30;2.30;;;28.30;41.80;;;;;;4998104;28;20444;-63
2022/05/23 14:08:38;;;;;;;2.63;2.10;;;28.40;41.50;;;;;;4996213;28;20463;-63
2022/05/23 14:11:20;;;;;;;4.33;2.73;;;28.30;40.90;;;;;;4996115;28;20576;-60
2022/05/23 14:13:48;;;;;;;5.80;2.80;;;28.20;40.60;;;;;;4994633;28;20953;-62
2022/05/23 14:16:17;;;;;;;4.70;2.77;;;28.10;40.30;;;;;;4996745;28;20447;-61
2022/05/23 14:18:44;;;;;;;4.67;2.37;;;28.10;40.20;;;;;;4995974;28;20443;-61
2022/05/23 14:21:34;;;;;;;2.97;2.67;;;28.00;40.10;;;;;;4996222;28;20467;-63
2022/05/23 14:24:02;;;;;;;4.60;2.30;;;28.00;40.00;;;;;;4995938;28;20838;-62
2022/05/23 14:26:29;;;;;;;4.87;2.33;;;27.90;39.90;;;;;;4995722;28;20542;-62
2022/05/23 14:28:57;;;;;;;6.13;2.27;;;27.90;39.90;;;;;;4995902;28;20443;-62
2022/05/23 14:31:37;;;;;;;5.10;2.60;;;27.90;40.10;;;;;;4995850;28;20847;-62
2022/05/23 14:34:09;;;;;;;4.80;2.30;;;27.90;40.40;;;;;;4995914;28;20434;-62
2022/05/23 14:36:37;;;;;;;5.60;2.40;;;27.80;40.60;;;;;;4995682;28;20844;-60
2022/05/23 14:39:16;;;;;;;5.70;2.40;;;27.60;40.90;;;;;;4995980;28;20506;-62
2022/05/23 14:41:43;;;;;;;3.30;2.43;;;27.50;41.30;;;;;;4996053;28;20556;-61